Time;durP1;ratioP1;P1;durP2;ratioP2;P2;SDS_P1;SDS_P2;PMS_P1;PMS_P2;Temp;Humidity;BMP_temperature;BMP_pressure;BME280_temperature;BME280_humidity;BME280_pressure;Samples;Min_cycle;Max_cycle;Signal;HPM_P1;HPM_P2
2021/08/03 00:01:15;;;;;;;3.20;2.60;;;19.50;99.90;;;;;;6277030;28;20230;-61
2021/08/03 00:04:21;;;;;;;2.80;2.30;;;19.40;99.90;;;;;;6272057;28;20372;-61
2021/08/03 00:07:26;;;;;;;3.30;3.00;;;19.30;99.90;;;;;;6250327;28;20584;-60
2021/08/03 00:10:30;;;;;;;2.77;2.57;;;19.30;99.90;;;;;;6250386;28;20228;-60
2021/08/03 00:13:34;;;;;;;2.93;2.63;;;19.30;99.90;;;;;;6250283;28;20246;-60
2021/08/03 00:16:39;;;;;;;2.60;2.40;;;19.20;99.90;;;;;;6250086;28;20255;-60
2021/08/03 00:19:44;;;;;;;3.97;3.30;;;19.10;99.90;;;;;;6264187;28;20853;-61
2021/08/03 00:22:49;;;;;;;3.80;2.63;;;19.10;99.90;;;;;;6275913;28;20232;-61
2021/08/03 00:25:53;;;;;;;3.23;2.90;;;19.00;99.90;;;;;;6274535;28;20853;-62
2021/08/03 00:28:56;;;;;;;2.90;2.70;;;19.00;99.90;;;;;;6274451;28;20706;-60
2021/08/03 00:32:00;;;;;;;3.03;2.83;;;19.00;99.90;;;;;;6259139;28;20467;-60
2021/08/03 00:35:05;;;;;;;2.70;2.50;;;18.90;99.90;;;;;;6249719;28;20475;-61
2021/08/03 00:38:09;;;;;;;2.93;2.73;;;18.90;99.90;;;;;;6271646;28;20528;-62
2021/08/03 00:41:15;;;;;;;11.23;3.57;;;18.90;99.90;;;;;;6274177;28;20532;-60
2021/08/03 00:44:18;;;;;;;2.27;2.07;;;18.80;99.90;;;;;;6274154;28;20791;-60
2021/08/03 00:47:22;;;;;;;2.90;2.70;;;18.70;99.90;;;;;;6274488;28;20466;-61
2021/08/03 00:50:26;;;;;;;3.70;2.70;;;18.70;99.90;;;;;;6274081;28;20966;-60
2021/08/03 00:53:31;;;;;;;3.27;2.97;;;18.50;99.90;;;;;;6274241;28;20513;-61
2021/08/03 00:56:36;;;;;;;3.00;2.80;;;18.30;99.90;;;;;;6273635;28;20470;-61
2021/08/03 00:59:39;;;;;;;3.17;2.97;;;18.10;99.90;;;;;;6270043;28;20527;-60
2021/08/03 01:02:43;;;;;;;2.57;2.37;;;18.00;99.90;;;;;;6274237;28;20473;-61
2021/08/03 01:06:01;;;;;;;3.17;2.87;;;17.90;99.90;;;;;;6259282;28;20846;-60
2021/08/03 01:09:10;;;;;;;3.17;2.97;;;17.80;99.90;;;;;;6249084;28;20490;-61
2021/08/03 01:12:31;;;;;;;3.20;2.67;;;17.80;99.90;;;;;;6249239;28;20474;-61
2021/08/03 01:15:44;;;;;;;3.57;3.27;;;17.60;99.90;;;;;;6248628;28;20483;-60
2021/08/03 01:18:55;;;;;;;4.00;3.00;;;17.60;99.90;;;;;;6249177;28;20456;-60
2021/08/03 01:22:04;;;;;;;3.20;2.90;;;17.60;99.90;;;;;;6248869;28;20735;-61
2021/08/03 01:25:18;;;;;;;2.50;2.30;;;17.60;99.90;;;;;;6254065;28;20508;-61
2021/08/03 01:28:24;;;;;;;2.87;2.67;;;17.70;99.90;;;;;;6273700;28;20995;-60
2021/08/03 01:31:31;;;;;;;3.53;2.63;;;17.70;99.90;;;;;;6262752;28;20809;-61
2021/08/03 01:34:38;;;;;;;3.23;2.93;;;17.90;99.90;;;;;;6248417;28;20767;-66
2021/08/03 01:37:42;;;;;;;3.80;2.97;;;18.00;99.90;;;;;;6266046;28;20462;-66
2021/08/03 01:40:46;;;;;;;3.47;3.00;;;18.00;99.90;;;;;;6271839;28;21117;-63
2021/08/03 01:43:51;;;;;;;3.90;3.50;;;18.00;99.90;;;;;;6271499;28;20557;-62
2021/08/03 01:46:56;;;;;;;3.67;3.37;;;18.00;99.90;;;;;;6275689;28;20870;-62
2021/08/03 01:50:01;;;;;;;3.50;3.20;;;18.00;99.90;;;;;;6278405;28;20477;-63
2021/08/03 01:53:06;;;;;;;3.30;3.00;;;17.90;99.90;;;;;;6279515;28;20470;-63
2021/08/03 01:56:11;;;;;;;3.47;3.00;;;17.90;99.90;;;;;;6283950;28;20844;-63
2021/08/03 01:59:18;;;;;;;3.70;3.40;;;17.90;99.90;;;;;;6281041;28;20477;-63
2021/08/03 02:02:21;;;;;;;2.80;2.40;;;18.00;99.90;;;;;;6277504;28;20470;-63
2021/08/03 02:05:25;;;;;;;3.40;3.10;;;18.10;99.90;;;;;;6271012;28;20470;-63
2021/08/03 02:08:29;;;;;;;3.57;3.30;;;18.00;99.90;;;;;;6271423;28;20477;-63
2021/08/03 02:11:36;;;;;;;3.20;3.00;;;17.90;99.90;;;;;;6271068;28;20477;-63
2021/08/03 02:14:45;;;;;;;2.77;2.57;;;17.90;99.90;;;;;;6272456;28;20484;-63
2021/08/03 02:17:48;;;;;;;5.03;3.43;;;17.90;99.90;;;;;;6273165;28;20563;-63
2021/08/03 02:20:53;;;;;;;3.63;3.33;;;17.90;99.90;;;;;;6273229;28;20975;-63
2021/08/03 02:23:56;;;;;;;3.10;2.87;;;17.90;99.90;;;;;;6273062;28;20503;-63
2021/08/03 02:26:59;;;;;;;3.57;3.27;;;17.80;99.90;;;;;;6273873;28;20477;-63
2021/08/03 02:30:05;;;;;;;3.80;3.50;;;17.80;99.90;;;;;;6277627;28;20477;-64
2021/08/03 02:33:14;;;;;;;4.27;3.57;;;17.80;99.90;;;;;;6277580;28;20477;-63
2021/08/03 02:36:21;;;;;;;2.87;2.67;;;17.70;99.90;;;;;;6277503;28;20466;-63
2021/08/03 02:39:25;;;;;;;3.90;3.20;;;17.60;99.90;;;;;;6277335;28;20473;-62
2021/08/03 02:42:29;;;;;;;3.33;3.03;;;17.70;99.90;;;;;;6277659;28;20983;-63
2021/08/03 02:45:37;;;;;;;4.07;3.77;;;17.60;99.90;;;;;;6277085;28;20478;-63
2021/08/03 02:48:41;;;;;;;4.97;3.60;;;17.50;99.90;;;;;;6277304;28;20422;-63
2021/08/03 02:51:46;;;;;;;4.80;4.13;;;17.50;99.90;;;;;;6277342;28;20434;-63
2021/08/03 02:54:53;;;;;;;4.97;4.67;;;17.50;99.90;;;;;;6276975;28;20466;-63
2021/08/03 02:58:01;;;;;;;3.83;3.53;;;17.40;99.90;;;;;;6276829;28;20473;-63
2021/08/03 03:01:09;;;;;;;4.80;4.37;;;17.40;99.90;;;;;;6277080;28;20485;-63
2021/08/03 03:04:18;;;;;;;4.20;3.90;;;17.40;99.90;;;;;;6276558;28;20513;-63
2021/08/03 03:07:33;;;;;;;4.13;3.83;;;17.40;99.90;;;;;;6267514;28;20477;-63
2021/08/03 03:10:44;;;;;;;3.63;3.30;;;17.40;99.90;;;;;;6276651;28;20474;-63
2021/08/03 03:13:51;;;;;;;3.63;3.33;;;17.40;99.90;;;;;;6276583;28;20481;-62
2021/08/03 03:16:58;;;;;;;4.37;4.07;;;17.40;99.90;;;;;;6276520;28;20470;-63
2021/08/03 03:20:04;;;;;;;4.90;4.13;;;17.30;99.90;;;;;;6276732;28;20489;-63
2021/08/03 03:23:08;;;;;;;5.07;4.57;;;17.20;99.90;;;;;;6276262;28;20482;-63
2021/08/03 03:26:12;;;;;;;5.00;4.60;;;17.20;99.90;;;;;;6276329;28;20983;-63
2021/08/03 03:29:17;;;;;;;3.90;3.60;;;17.20;99.90;;;;;;6276249;28;20477;-65
2021/08/03 03:32:22;;;;;;;5.10;4.70;;;17.10;99.90;;;;;;6276471;28;20472;-63
2021/08/03 03:35:25;;;;;;;4.63;3.90;;;17.00;99.90;;;;;;6275813;28;20959;-63
2021/08/03 03:38:30;;;;;;;4.30;3.90;;;16.90;99.90;;;;;;6276093;28;20478;-63
2021/08/03 03:41:34;;;;;;;5.07;4.67;;;16.80;99.90;;;;;;6276328;28;20480;-63
2021/08/03 03:44:40;;;;;;;5.03;4.60;;;16.80;99.90;;;;;;6276066;28;20482;-64
2021/08/03 03:47:52;;;;;;;6.70;5.23;;;16.90;99.90;;;;;;6275724;28;20523;-62
2021/08/03 03:50:59;;;;;;;4.63;4.23;;;16.90;99.90;;;;;;6275836;28;20531;-63
2021/08/03 03:54:04;;;;;;;15.67;5.37;;;16.90;99.90;;;;;;6275489;28;20481;-62
2021/08/03 03:57:11;;;;;;;5.97;5.37;;;16.90;99.90;;;;;;6275960;28;20473;-64
2021/08/03 04:00:19;;;;;;;6.13;5.53;;;17.00;99.90;;;;;;6275268;28;20489;-63
2021/08/03 04:03:27;;;;;;;6.33;5.83;;;17.00;99.90;;;;;;6275637;28;20474;-64
2021/08/03 04:06:30;;;;;;;6.00;5.50;;;17.10;99.90;;;;;;6275196;28;20465;-64
2021/08/03 04:09:33;;;;;;;5.13;4.10;;;17.20;99.90;;;;;;6275285;28;20470;-64
2021/08/03 04:12:37;;;;;;;4.63;4.17;;;17.20;99.90;;;;;;6270901;28;20477;-64
2021/08/03 04:15:41;;;;;;;7.43;4.83;;;17.30;99.90;;;;;;6274873;28;20482;-64
2021/08/03 04:18:46;;;;;;;4.57;4.20;;;17.50;99.90;;;;;;6275213;28;20921;-64
2021/08/03 04:21:50;;;;;;;5.17;4.73;;;17.60;99.90;;;;;;6274786;28;20445;-64
2021/08/03 04:24:54;;;;;;;6.33;4.83;;;17.70;99.90;;;;;;6274711;28;20769;-64
2021/08/03 04:27:57;;;;;;;6.73;6.00;;;17.80;99.90;;;;;;6275232;28;20446;-64
2021/08/03 04:31:00;;;;;;;6.63;6.03;;;17.80;99.90;;;;;;6274967;28;20740;-65
2021/08/03 04:34:05;;;;;;;7.27;6.63;;;17.80;99.90;;;;;;6274979;28;20469;-64
2021/08/03 04:37:09;;;;;;;8.40;7.60;;;17.80;99.90;;;;;;6275086;28;20480;-63
2021/08/03 04:40:14;;;;;;;7.97;7.17;;;17.90;99.90;;;;;;6274350;28;20492;-64
2021/08/03 04:43:17;;;;;;;7.37;6.73;;;17.90;99.90;;;;;;6274661;28;20990;-65
2021/08/03 04:46:20;;;;;;;9.07;7.80;;;18.00;99.90;;;;;;6274279;28;20778;-62
2021/08/03 04:49:25;;;;;;;8.97;8.17;;;18.00;99.90;;;;;;6274507;28;20454;-64
2021/08/03 04:52:28;;;;;;;9.30;8.40;;;18.00;99.90;;;;;;6273884;28;20466;-64
2021/08/03 04:55:31;;;;;;;9.87;7.70;;;18.10;99.90;;;;;;6274320;28;20493;-65
2021/08/03 04:58:34;;;;;;;8.47;7.67;;;18.30;99.90;;;;;;6274209;28;20504;-64
2021/08/03 05:01:37;;;;;;;20.00;17.40;;;18.50;99.90;;;;;;6274217;28;20978;-64
2021/08/03 05:04:42;;;;;;;12.53;11.37;;;18.70;99.90;;;;;;6274338;28;20986;-63
2021/08/03 05:07:55;;;;;;;11.40;10.40;;;18.80;99.90;;;;;;6273891;28;20971;-65
2021/08/03 05:10:58;;;;;;;8.20;7.50;;;19.00;99.90;;;;;;6273925;28;20231;-65
2021/08/03 05:14:02;;;;;;;7.10;6.37;;;19.00;99.90;;;;;;6273665;28;20947;-66
2021/08/03 05:17:06;;;;;;;7.10;5.87;;;19.10;99.90;;;;;;6269292;28;20319;-66
2021/08/03 05:20:13;;;;;;;5.20;4.80;;;19.20;99.90;;;;;;6274202;28;20334;-66
2021/08/03 05:23:16;;;;;;;5.10;4.70;;;19.30;99.90;;;;;;6274028;28;20243;-65
2021/08/03 05:26:20;;;;;;;5.33;4.83;;;19.40;99.90;;;;;;6273503;28;20234;-64
2021/08/03 05:29:23;;;;;;;4.70;4.33;;;19.50;99.90;;;;;;6274010;28;20645;-63
2021/08/03 05:32:26;;;;;;;4.60;4.20;;;19.60;99.90;;;;;;6274052;28;20231;-64
2021/08/03 05:35:31;;;;;;;6.43;4.93;;;19.70;99.90;;;;;;6273701;28;20401;-63
2021/08/03 05:38:34;;;;;;;5.23;4.83;;;19.90;99.90;;;;;;6273341;28;20227;-63
2021/08/03 05:41:37;;;;;;;10.27;4.90;;;20.00;99.90;;;;;;6273853;28;20432;-63
2021/08/03 05:44:40;;;;;;;5.00;4.30;;;20.20;99.90;;;;;;6273437;28;20684;-62
2021/08/03 05:47:44;;;;;;;5.63;4.20;;;20.30;99.90;;;;;;6273795;28;20227;-64
2021/08/03 05:50:48;;;;;;;4.33;3.93;;;20.50;99.90;;;;;;6273604;28;20231;-65
2021/08/03 05:53:51;;;;;;;5.27;4.30;;;20.70;99.90;;;;;;6273378;28;20607;-64
2021/08/03 05:56:54;;;;;;;4.27;3.87;;;21.00;99.90;;;;;;6273657;28;20223;-65
2021/08/03 05:59:57;;;;;;;4.73;4.37;;;21.40;99.90;;;;;;6273681;28;20258;-64
2021/08/03 06:03:01;;;;;;;5.57;4.07;;;21.80;99.90;;;;;;6275687;28;20239;-65
2021/08/03 06:06:07;;;;;;;4.27;3.87;;;22.20;99.90;;;;;;6277961;28;20232;-65
2021/08/03 06:09:12;;;;;;;4.47;4.13;;;22.80;99.90;;;;;;6278100;28;20708;-65
2021/08/03 06:12:15;;;;;;;6.17;4.50;;;23.30;99.90;;;;;;6277948;28;20242;-65
2021/08/03 06:15:19;;;;;;;4.70;4.27;;;23.90;99.90;;;;;;6278252;28;20254;-65
2021/08/03 06:18:30;;;;;;;4.17;3.77;;;24.20;99.30;;;;;;6278143;28;20240;-65
2021/08/03 06:21:34;;;;;;;7.30;6.80;;;24.40;98.40;;;;;;6277963;28;20232;-65
2021/08/03 06:24:39;;;;;;;8.17;7.40;;;25.00;98.00;;;;;;6277397;28;20239;-66
2021/08/03 06:27:43;;;;;;;7.40;6.70;;;25.00;98.40;;;;;;6277767;28;20219;-63
2021/08/03 06:30:49;;;;;;;9.33;8.37;;;25.40;97.60;;;;;;6277157;28;20207;-65
2021/08/03 06:33:53;;;;;;;8.80;7.90;;;25.30;96.90;;;;;;6277582;28;20223;-65
2021/08/03 06:36:57;;;;;;;9.87;8.87;;;25.30;97.80;;;;;;6277372;28;20199;-66
2021/08/03 06:40:00;;;;;;;9.70;8.80;;;25.90;96.80;;;;;;6277314;28;20520;-63
2021/08/03 06:43:10;;;;;;;9.10;8.40;;;26.50;95.40;;;;;;6277562;28;20235;-65
2021/08/03 06:46:13;;;;;;;9.80;8.90;;;27.00;94.10;;;;;;6277873;28;20231;-65
2021/08/03 06:49:18;;;;;;;9.27;8.37;;;27.30;92.40;;;;;;6277453;28;20227;-65
2021/08/03 06:52:23;;;;;;;8.67;7.97;;;27.80;91.50;;;;;;6277139;28;20675;-65
2021/08/03 06:55:29;;;;;;;8.33;7.57;;;28.70;89.20;;;;;;6276808;28;20624;-67
2021/08/03 06:58:38;;;;;;;6.80;6.10;;;29.60;85.10;;;;;;6277048;28;20233;-66
2021/08/03 07:01:50;;;;;;;7.50;6.80;;;30.10;81.70;;;;;;6277263;28;20226;-66
2021/08/03 07:04:58;;;;;;;9.10;8.27;;;30.90;77.00;;;;;;6277055;28;20237;-66
2021/08/03 07:08:02;;;;;;;8.47;7.43;;;31.40;73.40;;;;;;6276668;28;20237;-66
2021/08/03 07:11:07;;;;;;;7.20;6.53;;;31.60;71.10;;;;;;6276920;28;20252;-66
2021/08/03 07:14:10;;;;;;;7.60;7.00;;;31.90;69.50;;;;;;6276201;28;20373;-65
2021/08/03 07:17:15;;;;;;;6.97;6.45;;;32.10;67.10;;;;;;6276492;28;20227;-64
2021/08/03 07:20:19;;;;;;;6.45;5.82;;;32.80;64.90;;;;;;6276636;28;20592;-66
2021/08/03 07:23:24;;;;;;;6.78;6.18;;;33.60;61.90;;;;;;6266775;28;20574;-65
2021/08/03 07:26:27;;;;;;;5.82;5.32;;;34.30;59.30;;;;;;6276249;28;20258;-65
2021/08/03 07:29:31;;;;;;;6.95;6.45;;;34.60;57.00;;;;;;6276378;28;20227;-66
2021/08/03 07:32:35;;;;;;;7.32;6.80;;;35.10;56.00;;;;;;6276477;28;20238;-66
2021/08/03 07:35:40;;;;;;;7.85;7.15;;;35.40;54.30;;;;;;6276005;28;20234;-63
2021/08/03 07:38:45;;;;;;;8.10;5.85;;;35.50;54.10;;;;;;6276153;28;20227;-63
2021/08/03 07:41:49;;;;;;;7.10;6.50;;;36.30;52.80;;;;;;6275720;28;20554;-65
2021/08/03 07:44:52;;;;;;;6.00;5.50;;;36.80;51.50;;;;;;6275741;28;20246;-67
2021/08/03 07:47:56;;;;;;;6.53;5.95;;;37.60;49.60;;;;;;6275943;28;20550;-66
2021/08/03 07:50:59;;;;;;;6.15;5.57;;;38.30;48.00;;;;;;6275873;28;20235;-65
2021/08/03 07:54:04;;;;;;;6.00;5.60;;;38.40;47.20;;;;;;6275814;28;20235;-65
2021/08/03 07:57:07;;;;;;;6.28;5.45;;;37.80;46.90;;;;;;6275477;28;20242;-65
2021/08/03 08:00:11;;;;;;;6.45;5.85;;;38.60;46.00;;;;;;6283031;28;20230;-65
2021/08/03 08:03:16;;;;;;;8.75;6.07;;;39.20;45.40;;;;;;6292246;28;20235;-65
2021/08/03 08:06:19;;;;;;;6.38;5.97;;;40.20;43.50;;;;;;6277969;28;20748;-64
2021/08/03 08:09:24;;;;;;;5.70;5.30;;;40.40;42.80;;;;;;6288850;28;20249;-64
2021/08/03 08:12:27;;;;;;;6.97;6.38;;;41.40;41.40;;;;;;6285516;28;20600;-64
2021/08/03 08:15:30;;;;;;;5.85;5.38;;;42.60;39.00;;;;;;6285381;28;20241;-65
2021/08/03 08:18:33;;;;;;;5.38;5.03;;;41.70;38.70;;;;;;6287040;28;20222;-65
2021/08/03 08:21:37;;;;;;;6.47;5.97;;;41.60;38.70;;;;;;6279503;28;20659;-65
2021/08/03 08:24:41;;;;;;;8.07;5.57;;;42.40;38.20;;;;;;6273839;28;20231;-66
2021/08/03 08:27:44;;;;;;;5.25;4.95;;;43.10;36.80;;;;;;6274202;28;20694;-68
2021/08/03 08:30:48;;;;;;;5.32;4.93;;;41.60;38.50;;;;;;6274445;28;20198;-64
2021/08/03 08:33:51;;;;;;;5.78;5.20;;;41.80;38.50;;;;;;6274501;28;20241;-67
2021/08/03 08:36:54;;;;;;;4.97;4.68;;;41.60;38.30;;;;;;6282634;28;20573;-65
2021/08/03 08:40:00;;;;;;;6.07;5.60;;;40.60;39.80;;;;;;6267086;28;20211;-64
2021/08/03 08:43:04;;;;;;;5.45;5.05;;;39.50;41.20;;;;;;6249979;28;20250;-66
2021/08/03 08:46:08;;;;;;;4.38;4.07;;;38.70;42.00;;;;;;6272662;28;20674;-64
2021/08/03 08:49:14;;;;;;;4.57;4.20;;;37.20;42.20;;;;;;6299061;28;20230;-64
2021/08/03 08:52:18;;;;;;;4.93;4.57;;;36.10;45.20;;;;;;6299220;28;20227;-65
2021/08/03 08:55:23;;;;;;;4.95;4.47;;;35.60;45.90;;;;;;6299353;28;20240;-65
2021/08/03 08:58:27;;;;;;;4.68;4.38;;;34.40;48.00;;;;;;6299263;28;20222;-65
2021/08/03 09:01:30;;;;;;;3.70;3.38;;;33.60;48.30;;;;;;6299041;28;20226;-64
2021/08/03 09:04:33;;;;;;;3.60;3.40;;;33.30;49.00;;;;;;6296263;28;20230;-67
2021/08/03 09:07:48;;;;;;;3.97;3.67;;;32.70;48.40;;;;;;6248787;28;20226;-65
2021/08/03 09:10:52;;;;;;;4.60;4.25;;;32.40;47.30;;;;;;6256764;28;20613;-64
2021/08/03 09:14:00;;;;;;;3.65;3.35;;;32.40;47.40;;;;;;6259784;28;20240;-65
2021/08/03 09:17:04;;;;;;;3.67;3.47;;;31.50;50.40;;;;;;6249588;28;20224;-66
2021/08/03 09:20:14;;;;;;;2.55;2.35;;;30.80;52.70;;;;;;6249140;28;20357;-65
2021/08/03 09:23:18;;;;;;;5.15;2.80;;;30.60;52.00;;;;;;6249454;28;20243;-65
2021/08/03 09:26:42;;;;;;;2.77;2.53;;;30.20;53.10;;;;;;6249158;28;20246;-66
2021/08/03 09:29:46;;;;;;;2.93;2.73;;;29.60;53.40;;;;;;6253412;28;20234;-66
2021/08/03 09:32:50;;;;;;;2.97;2.50;;;29.30;53.90;;;;;;6273667;28;20231;-67
2021/08/03 09:35:54;;;;;;;3.80;3.23;;;29.00;55.50;;;;;;6274248;28;20229;-65
2021/08/03 09:38:57;;;;;;;3.03;2.77;;;29.10;55.70;;;;;;6278477;28;20226;-66
2021/08/03 09:42:02;;;;;;;3.40;3.10;;;29.00;55.40;;;;;;6278677;28;20591;-65
2021/08/03 09:45:06;;;;;;;2.97;2.77;;;28.60;57.20;;;;;;6278171;28;20230;-65
2021/08/03 09:48:12;;;;;;;2.60;2.40;;;28.60;58.00;;;;;;6278981;28;20230;-65
2021/08/03 09:51:15;;;;;;;3.07;2.87;;;28.50;58.50;;;;;;6278394;28;20237;-67
2021/08/03 09:54:19;;;;;;;2.50;2.30;;;28.80;58.10;;;;;;6278196;28;20242;-64
2021/08/03 09:57:25;;;;;;;1.97;1.87;;;29.30;57.30;;;;;;6278072;28;20234;-65
2021/08/03 10:00:34;;;;;;;2.37;2.17;;;29.60;54.40;;;;;;6278188;28;20233;-64
2021/08/03 10:03:39;;;;;;;4.90;4.50;;;29.20;52.80;;;;;;6277970;28;20306;-63
2021/08/03 10:06:44;;;;;;;2.20;2.00;;;28.70;53.10;;;;;;6278520;28;20689;-66
2021/08/03 10:09:49;;;;;;;2.40;2.20;;;28.80;54.70;;;;;;6285826;28;20222;-63
2021/08/03 10:12:53;;;;;;;2.70;2.50;;;28.70;55.70;;;;;;6290476;28;20190;-62
2021/08/03 10:15:56;;;;;;;2.40;2.20;;;27.90;57.60;;;;;;6290707;28;20565;-62
2021/08/03 10:19:01;;;;;;;2.70;2.50;;;27.40;59.00;;;;;;6290007;28;20726;-62
2021/08/03 10:22:18;;;;;;;2.60;2.40;;;27.20;60.50;;;;;;6288929;28;20246;-62
2021/08/03 10:25:23;;;;;;;2.40;2.20;;;27.40;59.60;;;;;;6289461;28;20234;-62
2021/08/03 10:28:29;;;;;;;2.57;2.37;;;27.40;58.80;;;;;;6288101;28;20225;-62
2021/08/03 10:31:39;;;;;;;2.50;2.30;;;27.60;59.90;;;;;;6296123;28;20234;-62
2021/08/03 10:35:00;;;;;;;2.47;2.27;;;27.30;60.20;;;;;;6289267;28;20235;-64
2021/08/03 10:38:12;;;;;;;2.63;2.43;;;27.40;59.20;;;;;;6277720;28;20231;-63
2021/08/03 10:41:18;;;;;;;2.30;2.10;;;27.60;58.90;;;;;;6274674;28;20333;-67
2021/08/03 10:44:41;;;;;;;2.30;2.10;;;27.80;58.20;;;;;;6277414;28;20246;-63
2021/08/03 10:47:46;;;;;;;2.20;1.83;;;27.90;59.00;;;;;;6276246;28;20247;-64
2021/08/03 10:50:49;;;;;;;2.57;2.37;;;28.00;57.20;;;;;;6277533;28;20345;-64
2021/08/03 10:54:00;;;;;;;2.03;1.83;;;28.00;57.10;;;;;;6277034;28;20242;-65
2021/08/03 10:57:12;;;;;;;2.30;2.10;;;28.20;57.80;;;;;;6277225;28;20226;-65
2021/08/03 11:00:17;;;;;;;2.20;2.00;;;28.40;57.00;;;;;;6276623;28;20238;-67
2021/08/03 11:03:42;;;;;;;2.40;2.20;;;28.40;56.20;;;;;;6275683;28;20233;-63
2021/08/03 11:06:50;;;;;;;2.07;1.80;;;28.30;56.00;;;;;;6276135;28;20226;-62
2021/08/03 11:09:54;;;;;;;3.03;2.10;;;28.50;55.00;;;;;;6276678;28;20682;-63
2021/08/03 11:12:57;;;;;;;1.80;1.70;;;28.80;54.90;;;;;;6275959;28;20199;-63
2021/08/03 11:16:02;;;;;;;2.30;2.10;;;29.10;54.00;;;;;;6276241;28;20234;-62
2021/08/03 11:19:07;;;;;;;2.53;2.07;;;29.30;53.30;;;;;;6275934;28;20239;-64
2021/08/03 11:22:10;;;;;;;1.90;1.60;;;29.10;54.80;;;;;;6276128;28;20522;-60
2021/08/03 11:25:18;;;;;;;2.43;2.23;;;29.10;55.00;;;;;;6275839;28;20675;-62
2021/08/03 11:28:23;;;;;;;1.90;1.70;;;29.20;54.70;;;;;;6276068;28;20222;-63
2021/08/03 11:31:52;;;;;;;1.57;1.43;;;29.10;52.80;;;;;;6275887;28;20238;-64
2021/08/03 11:34:57;;;;;;;1.63;1.53;;;29.00;53.70;;;;;;6275933;28;20576;-61
2021/08/03 11:38:03;;;;;;;1.47;1.37;;;28.70;54.20;;;;;;6271710;28;20246;-59
2021/08/03 11:41:06;;;;;;;1.90;1.73;;;28.80;54.20;;;;;;6275872;28;20333;-60
2021/08/03 11:44:14;;;;;;;1.83;1.73;;;28.80;54.00;;;;;;6275750;28;20727;-61
2021/08/03 11:47:19;;;;;;;2.10;1.40;;;28.80;54.80;;;;;;6270697;28;20223;-63
2021/08/03 11:50:31;;;;;;;1.77;1.47;;;28.60;54.60;;;;;;6278119;28;20232;-65
2021/08/03 11:53:34;;;;;;;1.87;1.77;;;28.50;54.50;;;;;;6288026;28;20237;-65
2021/08/03 11:56:37;;;;;;;2.50;1.63;;;28.60;54.50;;;;;;6288337;28;20218;-67
2021/08/03 11:59:40;;;;;;;2.00;1.80;;;28.60;54.60;;;;;;6300483;28;20226;-64
2021/08/03 12:02:47;;;;;;;2.03;1.27;;;28.50;53.50;;;;;;6297706;28;20222;-63
2021/08/03 12:05:52;;;;;;;2.33;1.40;;;28.40;53.30;;;;;;6275779;28;20304;-64
2021/08/03 12:08:55;;;;;;;1.73;1.33;;;28.60;52.60;;;;;;6275079;28;20242;-65
2021/08/03 12:12:15;;;;;;;4.17;1.50;;;28.70;51.10;;;;;;6275602;28;20364;-66
2021/08/03 12:15:20;;;;;;;2.00;1.40;;;29.00;51.30;;;;;;6250012;28;20248;-63
2021/08/03 12:18:35;;;;;;;3.10;1.63;;;28.90;52.20;;;;;;6269460;28;20234;-63
2021/08/03 12:21:39;;;;;;;1.30;1.20;;;28.50;52.90;;;;;;6274462;28;20266;-63
2021/08/03 12:24:55;;;;;;;1.70;1.60;;;28.20;53.20;;;;;;6274990;28;20250;-64
2021/08/03 12:27:58;;;;;;;4.60;1.60;;;27.90;54.10;;;;;;6274829;28;20203;-65
2021/08/03 12:31:32;;;;;;;1.57;1.47;;;28.30;54.80;;;;;;6275043;28;20206;-62
2021/08/03 12:34:38;;;;;;;1.70;1.40;;;28.50;55.20;;;;;;6274115;28;20234;-64
2021/08/03 12:37:42;;;;;;;1.50;1.40;;;28.40;56.30;;;;;;6274947;28;20238;-63
2021/08/03 12:40:46;;;;;;;1.57;1.47;;;28.30;55.90;;;;;;6274344;28;20280;-64
2021/08/03 12:43:49;;;;;;;3.53;1.60;;;28.20;55.40;;;;;;6265848;28;20242;-64
2021/08/03 12:46:52;;;;;;;2.17;1.60;;;28.10;55.10;;;;;;6274244;28;20242;-64
2021/08/03 12:50:06;;;;;;;1.57;1.47;;;28.00;55.70;;;;;;6274500;28;20227;-64
2021/08/03 12:53:09;;;;;;;1.90;1.80;;;27.80;55.80;;;;;;6273892;28;20592;-64
2021/08/03 12:56:28;;;;;;;1.87;1.63;;;27.80;55.30;;;;;;6268401;28;20220;-63
2021/08/03 12:59:35;;;;;;;2.50;1.53;;;28.10;55.90;;;;;;6249262;28;20224;-64
2021/08/03 13:02:39;;;;;;;2.30;1.90;;;28.40;56.90;;;;;;6249313;28;20257;-64
2021/08/03 13:05:45;;;;;;;2.20;2.00;;;28.50;57.20;;;;;;6253678;28;20226;-64
2021/08/03 13:08:48;;;;;;;2.87;2.00;;;28.10;57.70;;;;;;6279762;28;20218;-64
2021/08/03 13:11:52;;;;;;;2.07;1.73;;;27.90;57.80;;;;;;6293980;28;20691;-64
2021/08/03 13:14:55;;;;;;;1.90;1.80;;;28.20;57.90;;;;;;6255976;28;20568;-63
2021/08/03 13:17:58;;;;;;;2.23;2.03;;;28.20;56.90;;;;;;6263205;28;20310;-64
2021/08/03 13:21:03;;;;;;;1.87;1.60;;;28.10;57.30;;;;;;6271344;28;20828;-64
2021/08/03 13:24:06;;;;;;;2.60;1.50;;;28.30;57.80;;;;;;6271811;28;20227;-64
2021/08/03 13:27:09;;;;;;;1.70;1.60;;;28.60;57.50;;;;;;6273777;28;20276;-64
2021/08/03 13:30:13;;;;;;;1.70;1.60;;;28.70;57.10;;;;;;6273835;28;20223;-64
2021/08/03 13:33:16;;;;;;;4.23;2.90;;;28.80;56.50;;;;;;6273597;28;20223;-64
2021/08/03 13:36:20;;;;;;;1.70;1.60;;;29.00;56.70;;;;;;6273678;28;20237;-64
2021/08/03 13:39:24;;;;;;;1.60;1.50;;;28.60;55.90;;;;;;6273379;28;20227;-67
2021/08/03 13:42:27;;;;;;;1.50;1.40;;;28.40;56.30;;;;;;6273673;28;20230;-67
2021/08/03 13:45:30;;;;;;;2.10;1.93;;;27.90;57.10;;;;;;6273140;28;20245;-66
2021/08/03 13:48:33;;;;;;;2.00;1.80;;;27.80;58.10;;;;;;6242463;28;20397;-66
2021/08/03 13:51:38;;;;;;;2.27;1.77;;;27.90;58.20;;;;;;6248352;28;20231;-67
2021/08/03 13:54:42;;;;;;;1.93;1.83;;;28.00;58.80;;;;;;6248984;28;20668;-67
2021/08/03 13:57:45;;;;;;;2.53;2.33;;;28.10;59.20;;;;;;6255832;28;20710;-66
2021/08/03 14:00:49;;;;;;;2.23;1.80;;;27.80;59.70;;;;;;6273511;28;20230;-66
2021/08/03 14:03:52;;;;;;;2.10;1.87;;;27.90;60.50;;;;;;6273133;28;20226;-66
2021/08/03 14:06:57;;;;;;;4.40;1.87;;;28.00;59.80;;;;;;6273034;28;20214;-67
2021/08/03 14:10:00;;;;;;;2.53;1.80;;;27.90;60.20;;;;;;6273644;28;20211;-66
2021/08/03 14:13:03;;;;;;;4.13;1.87;;;27.90;60.80;;;;;;6273153;28;20282;-66
2021/08/03 14:16:07;;;;;;;2.40;2.20;;;27.90;60.10;;;;;;6273521;28;20203;-66
2021/08/03 14:19:10;;;;;;;4.73;2.43;;;27.70;59.70;;;;;;6289548;28;20237;-67
2021/08/03 14:22:15;;;;;;;2.47;2.00;;;27.50;61.20;;;;;;6279372;28;20679;-65
2021/08/03 14:25:18;;;;;;;3.13;2.50;;;27.60;60.80;;;;;;6277173;28;20230;-68
2021/08/03 14:28:21;;;;;;;2.53;1.90;;;27.60;61.30;;;;;;6277851;28;20676;-66
2021/08/03 14:31:28;;;;;;;2.33;1.90;;;27.70;61.60;;;;;;6277382;28;20308;-65
2021/08/03 14:34:32;;;;;;;2.90;2.10;;;27.80;61.60;;;;;;6278058;28;20246;-67
2021/08/03 14:37:39;;;;;;;2.23;2.03;;;27.90;61.80;;;;;;6277448;28;20250;-62
2021/08/03 14:40:42;;;;;;;2.50;2.30;;;28.10;61.40;;;;;;6277341;28;20614;-65
2021/08/03 14:43:47;;;;;;;2.40;1.80;;;28.20;60.50;;;;;;6277198;28;20314;-66
2021/08/03 14:46:50;;;;;;;2.43;2.17;;;28.20;60.80;;;;;;6277054;28;20215;-69
2021/08/03 14:49:54;;;;;;;2.80;2.33;;;28.00;61.20;;;;;;6272985;28;20234;-65
2021/08/03 14:52:58;;;;;;;2.27;2.10;;;27.60;62.20;;;;;;6275863;28;20227;-65
2021/08/03 14:56:01;;;;;;;2.53;2.33;;;27.40;63.60;;;;;;6277058;28;20226;-64
2021/08/03 14:59:04;;;;;;;2.77;2.57;;;27.10;64.80;;;;;;6295284;28;20233;-66
2021/08/03 15:02:08;;;;;;;3.33;2.53;;;27.30;64.90;;;;;;6301920;28;20225;-66
2021/08/03 15:05:11;;;;;;;3.00;2.80;;;27.30;64.90;;;;;;6300872;28;20234;-67
2021/08/03 15:08:16;;;;;;;3.10;2.20;;;27.20;66.10;;;;;;6276586;28;20241;-66
2021/08/03 15:11:20;;;;;;;3.40;2.40;;;27.20;66.20;;;;;;6276248;28;20249;-66
2021/08/03 15:14:23;;;;;;;3.00;2.80;;;27.10;67.10;;;;;;6276227;28;20785;-65
2021/08/03 15:17:27;;;;;;;3.20;3.00;;;26.90;66.50;;;;;;6276376;28;20231;-66
2021/08/03 15:20:30;;;;;;;2.50;2.30;;;26.90;67.40;;;;;;6274709;28;20227;-65
2021/08/03 15:23:35;;;;;;;2.83;2.63;;;26.80;68.40;;;;;;6273858;28;20234;-67
2021/08/03 15:26:38;;;;;;;3.20;2.73;;;26.90;68.20;;;;;;6274049;28;20230;-67
2021/08/03 15:29:42;;;;;;;3.17;2.87;;;27.00;68.60;;;;;;6275536;28;20740;-65
2021/08/03 15:32:45;;;;;;;3.20;2.90;;;27.00;71.90;;;;;;6280091;28;20222;-64
2021/08/03 15:35:48;;;;;;;3.83;2.60;;;26.80;74.60;;;;;;6282399;28;20230;-65
2021/08/03 15:38:53;;;;;;;3.70;3.03;;;26.60;76.40;;;;;;6287148;28;20222;-65
2021/08/03 15:41:56;;;;;;;3.53;3.20;;;26.50;77.90;;;;;;6288559;28;20694;-64
2021/08/03 15:44:59;;;;;;;3.40;3.10;;;26.30;80.80;;;;;;6299927;28;20238;-65
2021/08/03 15:48:02;;;;;;;3.37;3.07;;;26.00;83.20;;;;;;6293966;28;20226;-64
2021/08/03 15:51:08;;;;;;;3.97;2.03;;;25.90;84.60;;;;;;6299428;28;20246;-64
2021/08/03 15:54:12;;;;;;;2.40;1.67;;;24.50;81.30;;;;;;6285790;28;20672;-64
2021/08/03 15:57:15;;;;;;;3.27;2.17;;;23.50;83.60;;;;;;6270942;28;20228;-64
2021/08/03 16:00:18;;;;;;;3.00;1.70;;;23.10;88.10;;;;;;6275701;28;20566;-64
2021/08/03 16:03:21;;;;;;;2.63;2.43;;;23.00;88.50;;;;;;6275252;28;20236;-64